sensor_id;sensor_type;location;lat;lon;timestamp;P1;durP1;ratioP1;P2;durP2;ratioP2
30243;SDS011;64022;53.652;9.792;2022-10-17T00:00:21;27.87;;;18.97;;
30243;SDS011;64022;53.652;9.792;2022-10-17T00:02:46;25.00;;;17.33;;
30243;SDS011;64022;53.652;9.792;2022-10-17T00:05:12;26.63;;;17.47;;
30243;SDS011;64022;53.652;9.792;2022-10-17T00:07:37;27.33;;;18.63;;
30243;SDS011;64022;53.652;9.792;2022-10-17T00:10:04;26.17;;;18.73;;
30243;SDS011;64022;53.652;9.792;2022-10-17T00:12:31;28.15;;;18.52;;
30243;SDS011;64022;53.652;9.792;2022-10-17T00:14:57;25.88;;;17.92;;
30243;SDS011;64022;53.652;9.792;2022-10-17T00:17:22;29.47;;;17.33;;
30243;SDS011;64022;53.652;9.792;2022-10-17T00:19:48;27.53;;;18.00;;
30243;SDS011;64022;53.652;9.792;2022-10-17T00:22:14;27.13;;;17.57;;
30243;SDS011;64022;53.652;9.792;2022-10-17T00:24:39;25.27;;;17.17;;
30243;SDS011;64022;53.652;9.792;2022-10-17T00:27:05;27.10;;;17.93;;
30243;SDS011;64022;53.652;9.792;2022-10-17T00:29:30;28.13;;;17.60;;
30243;SDS011;64022;53.652;9.792;2022-10-17T00:31:56;26.70;;;17.27;;
30243;SDS011;64022;53.652;9.792;2022-10-17T00:34:22;23.90;;;16.57;;
30243;SDS011;64022;53.652;9.792;2022-10-17T00:36:48;25.95;;;17.17;;
30243;SDS011;64022;53.652;9.792;2022-10-17T00:39:14;27.03;;;17.47;;
30243;SDS011;64022;53.652;9.792;2022-10-17T00:41:39;24.80;;;15.97;;
30243;SDS011;64022;53.652;9.792;2022-10-17T00:44:06;24.63;;;17.07;;
30243;SDS011;64022;53.652;9.792;2022-10-17T00:46:52;24.55;;;17.05;;
30243;SDS011;64022;53.652;9.792;2022-10-17T00:49:18;25.10;;;16.73;;
30243;SDS011;64022;53.652;9.792;2022-10-17T00:51:48;25.90;;;16.55;;
30243;SDS011;64022;53.652;9.792;2022-10-17T00:54:18;22.85;;;15.95;;
30243;SDS011;64022;53.652;9.792;2022-10-17T00:56:48;24.15;;;16.75;;
30243;SDS011;64022;53.652;9.792;2022-10-17T00:59:15;24.17;;;16.10;;
30243;SDS011;64022;53.652;9.792;2022-10-17T01:01:53;28.52;;;17.05;;
30243;SDS011;64022;53.652;9.792;2022-10-17T01:04:25;24.35;;;16.40;;
30243;SDS011;64022;53.652;9.792;2022-10-17T01:06:50;24.60;;;16.57;;
30243;SDS011;64022;53.652;9.792;2022-10-17T01:09:16;24.23;;;16.03;;
30243;SDS011;64022;53.652;9.792;2022-10-17T01:17:01;22.95;;;15.40;;
30243;SDS011;64022;53.652;9.792;2022-10-17T01:20:07;23.75;;;14.70;;
30243;SDS011;64022;53.652;9.792;2022-10-17T01:28:13;23.15;;;15.27;;
30243;SDS011;64022;53.652;9.792;2022-10-17T01:31:12;22.77;;;15.32;;
30243;SDS011;64022;53.652;9.792;2022-10-17T01:33:43;24.73;;;15.30;;
30243;SDS011;64022;53.652;9.792;2022-10-17T01:36:27;23.13;;;16.45;;
30243;SDS011;64022;53.652;9.792;2022-10-17T01:44:38;21.88;;;15.38;;
30243;SDS011;64022;53.652;9.792;2022-10-17T01:47:16;22.73;;;15.40;;
30243;SDS011;64022;53.652;9.792;2022-10-17T01:49:45;19.95;;;14.50;;
30243;SDS011;64022;53.652;9.792;2022-10-17T01:52:23;24.40;;;15.05;;
30243;SDS011;64022;53.652;9.792;2022-10-17T01:54:55;23.20;;;15.65;;
30243;SDS011;64022;53.652;9.792;2022-10-17T01:57:37;24.85;;;15.23;;
30243;SDS011;64022;53.652;9.792;2022-10-17T02:00:10;23.88;;;15.55;;
30243;SDS011;64022;53.652;9.792;2022-10-17T02:02:40;19.70;;;14.27;;
30243;SDS011;64022;53.652;9.792;2022-10-17T02:05:07;23.58;;;16.27;;
30243;SDS011;64022;53.652;9.792;2022-10-17T02:07:33;21.75;;;15.35;;
30243;SDS011;64022;53.652;9.792;2022-10-17T02:09:59;22.33;;;15.83;;
30243;SDS011;64022;53.652;9.792;2022-10-17T02:15:05;22.65;;;14.93;;
30243;SDS011;64022;53.652;9.792;2022-10-17T02:22:55;21.63;;;14.40;;
30243;SDS011;64022;53.652;9.792;2022-10-17T02:25:42;21.95;;;15.00;;
30243;SDS011;64022;53.652;9.792;2022-10-17T02:28:20;21.27;;;14.70;;
30243;SDS011;64022;53.652;9.792;2022-10-17T02:31:01;22.77;;;15.15;;
30243;SDS011;64022;53.652;9.792;2022-10-17T02:36:05;21.67;;;14.00;;
30243;SDS011;64022;53.652;9.792;2022-10-17T02:38:35;19.00;;;13.55;;
30243;SDS011;64022;53.652;9.792;2022-10-17T02:41:02;20.35;;;14.13;;
30243;SDS011;64022;53.652;9.792;2022-10-17T02:43:31;23.38;;;15.02;;
30243;SDS011;64022;53.652;9.792;2022-10-17T02:45:57;24.55;;;15.82;;
30243;SDS011;64022;53.652;9.792;2022-10-17T02:48:25;22.40;;;15.77;;
30243;SDS011;64022;53.652;9.792;2022-10-17T02:51:03;23.33;;;15.57;;
30243;SDS011;64022;53.652;9.792;2022-10-17T02:53:43;20.40;;;14.63;;
30243;SDS011;64022;53.652;9.792;2022-10-17T02:56:22;21.65;;;14.45;;
30243;SDS011;64022;53.652;9.792;2022-10-17T02:58:52;21.83;;;14.23;;
30243;SDS011;64022;53.652;9.792;2022-10-17T03:01:21;20.05;;;13.18;;
30243;SDS011;64022;53.652;9.792;2022-10-17T03:03:48;20.77;;;13.98;;
30243;SDS011;64022;53.652;9.792;2022-10-17T03:06:13;21.70;;;13.73;;
30243;SDS011;64022;53.652;9.792;2022-10-17T03:08:39;18.23;;;13.40;;
30243;SDS011;64022;53.652;9.792;2022-10-17T03:11:05;20.73;;;13.70;;
30243;SDS011;64022;53.652;9.792;2022-10-17T03:13:30;20.93;;;13.77;;
30243;SDS011;64022;53.652;9.792;2022-10-17T03:15:56;24.43;;;14.53;;
30243;SDS011;64022;53.652;9.792;2022-10-17T03:18:21;21.37;;;12.83;;
30243;SDS011;64022;53.652;9.792;2022-10-17T03:20:47;20.13;;;14.20;;
30243;SDS011;64022;53.652;9.792;2022-10-17T03:23:12;20.70;;;13.33;;
30243;SDS011;64022;53.652;9.792;2022-10-17T03:25:40;17.97;;;13.13;;
30243;SDS011;64022;53.652;9.792;2022-10-17T03:28:06;22.15;;;13.75;;
30243;SDS011;64022;53.652;9.792;2022-10-17T03:30:32;19.17;;;13.23;;
30243;SDS011;64022;53.652;9.792;2022-10-17T03:32:58;19.87;;;13.13;;
30243;SDS011;64022;53.652;9.792;2022-10-17T03:35:24;17.93;;;12.90;;
30243;SDS011;64022;53.652;9.792;2022-10-17T03:37:50;18.00;;;12.73;;
30243;SDS011;64022;53.652;9.792;2022-10-17T03:40:16;20.27;;;13.57;;
30243;SDS011;64022;53.652;9.792;2022-10-17T03:42:41;19.27;;;13.67;;
30243;SDS011;64022;53.652;9.792;2022-10-17T03:45:07;20.60;;;13.53;;
30243;SDS011;64022;53.652;9.792;2022-10-17T03:47:33;18.67;;;13.53;;
30243;SDS011;64022;53.652;9.792;2022-10-17T03:49:58;18.63;;;13.60;;
30243;SDS011;64022;53.652;9.792;2022-10-17T03:52:24;18.70;;;13.23;;
30243;SDS011;64022;53.652;9.792;2022-10-17T03:54:49;19.00;;;13.00;;
30243;SDS011;64022;53.652;9.792;2022-10-17T03:57:15;19.27;;;13.50;;
30243;SDS011;64022;53.652;9.792;2022-10-17T03:59:42;21.17;;;13.65;;
30243;SDS011;64022;53.652;9.792;2022-10-17T04:02:07;20.13;;;13.00;;
30243;SDS011;64022;53.652;9.792;2022-10-17T04:04:33;20.73;;;12.57;;
30243;SDS011;64022;53.652;9.792;2022-10-17T04:06:58;18.93;;;13.73;;
30243;SDS011;64022;53.652;9.792;2022-10-17T04:09:24;19.57;;;13.10;;
30243;SDS011;64022;53.652;9.792;2022-10-17T04:11:49;19.27;;;14.03;;
30243;SDS011;64022;53.652;9.792;2022-10-17T04:14:15;17.37;;;12.90;;
30243;SDS011;64022;53.652;9.792;2022-10-17T04:16:40;19.73;;;12.73;;
30243;SDS011;64022;53.652;9.792;2022-10-17T04:19:06;18.63;;;13.23;;
30243;SDS011;64022;53.652;9.792;2022-10-17T04:21:31;18.97;;;13.83;;
30243;SDS011;64022;53.652;9.792;2022-10-17T04:23:57;19.40;;;13.07;;
30243;SDS011;64022;53.652;9.792;2022-10-17T04:26:24;19.40;;;13.20;;
30243;SDS011;64022;53.652;9.792;2022-10-17T04:31:16;18.52;;;12.75;;
30243;SDS011;64022;53.652;9.792;2022-10-17T04:33:45;21.35;;;13.30;;
30243;SDS011;64022;53.652;9.792;2022-10-17T04:36:12;18.88;;;13.32;;
30243;SDS011;64022;53.652;9.792;2022-10-17T04:38:40;18.70;;;13.20;;
30243;SDS011;64022;53.652;9.792;2022-10-17T04:41:07;17.90;;;13.37;;
30243;SDS011;64022;53.652;9.792;2022-10-17T04:43:36;20.08;;;13.43;;
30243;SDS011;64022;53.652;9.792;2022-10-17T04:46:04;21.85;;;12.50;;
30243;SDS011;64022;53.652;9.792;2022-10-17T04:48:31;17.55;;;12.98;;
30243;SDS011;64022;53.652;9.792;2022-10-17T04:50:58;20.53;;;13.87;;
30243;SDS011;64022;53.652;9.792;2022-10-17T04:53:25;17.80;;;12.75;;
30243;SDS011;64022;53.652;9.792;2022-10-17T04:55:51;18.63;;;13.45;;
30243;SDS011;64022;53.652;9.792;2022-10-17T04:58:17;18.52;;;12.93;;
30243;SDS011;64022;53.652;9.792;2022-10-17T05:00:43;18.33;;;12.60;;
30243;SDS011;64022;53.652;9.792;2022-10-17T05:03:09;19.13;;;12.87;;
30243;SDS011;64022;53.652;9.792;2022-10-17T05:05:37;20.10;;;14.10;;
30243;SDS011;64022;53.652;9.792;2022-10-17T05:08:04;18.15;;;12.55;;
30243;SDS011;64022;53.652;9.792;2022-10-17T05:10:34;19.90;;;13.00;;
30243;SDS011;64022;53.652;9.792;2022-10-17T05:13:01;20.27;;;13.10;;
30243;SDS011;64022;53.652;9.792;2022-10-17T05:15:26;18.17;;;12.60;;
30243;SDS011;64022;53.652;9.792;2022-10-17T05:17:55;19.07;;;12.17;;
30243;SDS011;64022;53.652;9.792;2022-10-17T05:20:21;19.45;;;13.48;;
30243;SDS011;64022;53.652;9.792;2022-10-17T05:22:47;17.40;;;12.20;;
30243;SDS011;64022;53.652;9.792;2022-10-17T05:25:13;20.63;;;13.00;;
30243;SDS011;64022;53.652;9.792;2022-10-17T05:27:38;18.90;;;12.50;;
30243;SDS011;64022;53.652;9.792;2022-10-17T05:30:04;17.57;;;11.90;;
30243;SDS011;64022;53.652;9.792;2022-10-17T05:32:30;17.23;;;12.52;;
30243;SDS011;64022;53.652;9.792;2022-10-17T05:34:56;19.23;;;13.03;;
30243;SDS011;64022;53.652;9.792;2022-10-17T05:37:21;18.10;;;11.63;;
30243;SDS011;64022;53.652;9.792;2022-10-17T05:39:47;18.87;;;12.10;;
30243;SDS011;64022;53.652;9.792;2022-10-17T05:42:13;18.17;;;11.77;;
30243;SDS011;64022;53.652;9.792;2022-10-17T05:44:38;19.13;;;12.80;;
30243;SDS011;64022;53.652;9.792;2022-10-17T05:49:31;16.20;;;11.52;;
30243;SDS011;64022;53.652;9.792;2022-10-17T05:51:56;18.13;;;12.90;;
30243;SDS011;64022;53.652;9.792;2022-10-17T05:54:22;17.97;;;12.23;;
30243;SDS011;64022;53.652;9.792;2022-10-17T05:56:51;17.77;;;12.87;;
30243;SDS011;64022;53.652;9.792;2022-10-17T05:59:17;17.80;;;12.55;;
30243;SDS011;64022;53.652;9.792;2022-10-17T06:01:43;16.97;;;12.10;;
30243;SDS011;64022;53.652;9.792;2022-10-17T06:04:08;18.70;;;13.13;;
30243;SDS011;64022;53.652;9.792;2022-10-17T06:06:38;17.47;;;12.13;;
30243;SDS011;64022;53.652;9.792;2022-10-17T06:09:04;20.08;;;13.07;;
30243;SDS011;64022;53.652;9.792;2022-10-17T06:11:29;19.97;;;12.67;;
30243;SDS011;64022;53.652;9.792;2022-10-17T06:13:55;18.47;;;12.23;;
30243;SDS011;64022;53.652;9.792;2022-10-17T06:16:21;18.83;;;13.00;;
30243;SDS011;64022;53.652;9.792;2022-10-17T06:18:46;16.40;;;12.40;;
30243;SDS011;64022;53.652;9.792;2022-10-17T06:21:13;18.67;;;13.10;;
30243;SDS011;64022;53.652;9.792;2022-10-17T06:23:42;19.00;;;13.00;;
30243;SDS011;64022;53.652;9.792;2022-10-17T06:26:07;16.47;;;11.83;;
30243;SDS011;64022;53.652;9.792;2022-10-17T06:28:33;17.97;;;12.60;;
30243;SDS011;64022;53.652;9.792;2022-10-17T06:31:06;16.92;;;12.05;;
30243;SDS011;64022;53.652;9.792;2022-10-17T06:33:36;18.63;;;13.50;;
30243;SDS011;64022;53.652;9.792;2022-10-17T06:36:02;19.13;;;13.00;;
30243;SDS011;64022;53.652;9.792;2022-10-17T06:38:29;18.35;;;13.23;;
30243;SDS011;64022;53.652;9.792;2022-10-17T06:41:01;17.60;;;12.77;;
30243;SDS011;64022;53.652;9.792;2022-10-17T06:43:34;20.40;;;13.70;;
30243;SDS011;64022;53.652;9.792;2022-10-17T06:46:01;21.33;;;13.55;;
30243;SDS011;64022;53.652;9.792;2022-10-17T06:48:26;17.20;;;12.63;;
30243;SDS011;64022;53.652;9.792;2022-10-17T06:50:52;19.67;;;13.57;;
30243;SDS011;64022;53.652;9.792;2022-10-17T06:53:17;20.07;;;13.17;;
30243;SDS011;64022;53.652;9.792;2022-10-17T06:55:43;19.77;;;13.23;;
30243;SDS011;64022;53.652;9.792;2022-10-17T06:58:08;19.10;;;12.93;;
30243;SDS011;64022;53.652;9.792;2022-10-17T07:00:34;17.67;;;12.43;;
30243;SDS011;64022;53.652;9.792;2022-10-17T07:02:59;18.00;;;13.10;;
30243;SDS011;64022;53.652;9.792;2022-10-17T07:05:25;19.70;;;13.90;;
30243;SDS011;64022;53.652;9.792;2022-10-17T07:07:50;17.93;;;13.63;;
30243;SDS011;64022;53.652;9.792;2022-10-17T07:10:16;18.97;;;13.43;;
30243;SDS011;64022;53.652;9.792;2022-10-17T07:12:41;19.73;;;13.87;;
30243;SDS011;64022;53.652;9.792;2022-10-17T07:15:09;20.48;;;13.38;;
30243;SDS011;64022;53.652;9.792;2022-10-17T07:17:35;18.33;;;13.63;;
30243;SDS011;64022;53.652;9.792;2022-10-17T07:20:00;20.53;;;14.07;;
30243;SDS011;64022;53.652;9.792;2022-10-17T07:22:26;18.73;;;14.03;;
30243;SDS011;64022;53.652;9.792;2022-10-17T07:24:52;19.53;;;14.47;;
30243;SDS011;64022;53.652;9.792;2022-10-17T07:27:17;18.93;;;14.23;;
30243;SDS011;64022;53.652;9.792;2022-10-17T07:29:43;19.53;;;13.40;;
30243;SDS011;64022;53.652;9.792;2022-10-17T07:32:08;19.80;;;13.40;;
30243;SDS011;64022;53.652;9.792;2022-10-17T07:34:34;20.47;;;13.83;;
30243;SDS011;64022;53.652;9.792;2022-10-17T07:37:00;18.25;;;13.80;;
30243;SDS011;64022;53.652;9.792;2022-10-17T07:39:27;21.07;;;13.63;;
30243;SDS011;64022;53.652;9.792;2022-10-17T07:41:53;19.02;;;13.90;;
30243;SDS011;64022;53.652;9.792;2022-10-17T07:44:19;20.07;;;13.63;;
30243;SDS011;64022;53.652;9.792;2022-10-17T07:46:44;18.47;;;13.73;;
30243;SDS011;64022;53.652;9.792;2022-10-17T07:49:10;22.40;;;14.30;;
30243;SDS011;64022;53.652;9.792;2022-10-17T07:51:36;20.20;;;12.87;;
30243;SDS011;64022;53.652;9.792;2022-10-17T07:54:01;19.77;;;13.67;;
30243;SDS011;64022;53.652;9.792;2022-10-17T07:56:28;18.52;;;13.93;;
30243;SDS011;64022;53.652;9.792;2022-10-17T07:58:54;19.37;;;14.03;;
30243;SDS011;64022;53.652;9.792;2022-10-17T08:01:21;21.25;;;14.45;;
30243;SDS011;64022;53.652;9.792;2022-10-17T08:03:46;20.90;;;14.30;;
30243;SDS011;64022;53.652;9.792;2022-10-17T08:06:15;19.17;;;14.15;;
30243;SDS011;64022;53.652;9.792;2022-10-17T08:08:40;19.53;;;14.30;;
30243;SDS011;64022;53.652;9.792;2022-10-17T08:11:08;19.38;;;14.05;;
30243;SDS011;64022;53.652;9.792;2022-10-17T08:13:36;19.02;;;13.80;;
30243;SDS011;64022;53.652;9.792;2022-10-17T08:16:05;20.13;;;14.40;;
30243;SDS011;64022;53.652;9.792;2022-10-17T08:18:32;19.30;;;13.85;;
30243;SDS011;64022;53.652;9.792;2022-10-17T08:23:25;18.27;;;13.15;;
30243;SDS011;64022;53.652;9.792;2022-10-17T08:25:51;19.27;;;14.00;;
30243;SDS011;64022;53.652;9.792;2022-10-17T08:28:17;19.63;;;13.83;;
30243;SDS011;64022;53.652;9.792;2022-10-17T08:30:42;19.33;;;13.63;;
30243;SDS011;64022;53.652;9.792;2022-10-17T08:33:08;19.40;;;13.40;;
30243;SDS011;64022;53.652;9.792;2022-10-17T08:35:33;17.90;;;13.30;;
30243;SDS011;64022;53.652;9.792;2022-10-17T08:37:59;18.20;;;13.50;;
30243;SDS011;64022;53.652;9.792;2022-10-17T08:40:26;18.15;;;13.30;;
30243;SDS011;64022;53.652;9.792;2022-10-17T08:43:01;20.15;;;14.25;;
30243;SDS011;64022;53.652;9.792;2022-10-17T08:45:34;19.20;;;13.68;;
30243;SDS011;64022;53.652;9.792;2022-10-17T08:48:22;19.33;;;13.48;;
30243;SDS011;64022;53.652;9.792;2022-10-17T08:50:55;18.30;;;13.02;;
30243;SDS011;64022;53.652;9.792;2022-10-17T08:53:50;18.83;;;13.18;;
30243;SDS011;64022;53.652;9.792;2022-10-17T08:56:22;18.55;;;13.25;;
30243;SDS011;64022;53.652;9.792;2022-10-17T08:58:49;18.05;;;13.13;;
30243;SDS011;64022;53.652;9.792;2022-10-17T09:01:22;18.88;;;13.77;;
30243;SDS011;64022;53.652;9.792;2022-10-17T09:06:54;19.17;;;13.07;;
30243;SDS011;64022;53.652;9.792;2022-10-17T09:09:48;18.00;;;13.38;;
30243;SDS011;64022;53.652;9.792;2022-10-17T09:12:50;17.17;;;12.50;;
30243;SDS011;64022;53.652;9.792;2022-10-17T09:15:44;17.05;;;12.90;;
30243;SDS011;64022;53.652;9.792;2022-10-17T09:23:24;19.63;;;13.68;;
30243;SDS011;64022;53.652;9.792;2022-10-17T09:25:53;18.00;;;13.63;;
30243;SDS011;64022;53.652;9.792;2022-10-17T09:28:33;18.77;;;13.60;;
30243;SDS011;64022;53.652;9.792;2022-10-17T09:33:39;17.33;;;12.70;;
30243;SDS011;64022;53.652;9.792;2022-10-17T09:36:13;17.67;;;12.90;;
30243;SDS011;64022;53.652;9.792;2022-10-17T09:38:52;18.13;;;12.40;;
30243;SDS011;64022;53.652;9.792;2022-10-17T09:41:21;20.05;;;12.27;;
30243;SDS011;64022;53.652;9.792;2022-10-17T09:43:51;17.25;;;13.27;;
30243;SDS011;64022;53.652;9.792;2022-10-17T09:46:28;17.40;;;12.48;;
30243;SDS011;64022;53.652;9.792;2022-10-17T09:49:05;17.10;;;12.57;;
30243;SDS011;64022;53.652;9.792;2022-10-17T09:51:36;17.27;;;12.27;;
30243;SDS011;64022;53.652;9.792;2022-10-17T09:54:04;16.95;;;12.68;;
30243;SDS011;64022;53.652;9.792;2022-10-17T09:56:59;17.27;;;12.35;;
30243;SDS011;64022;53.652;9.792;2022-10-17T09:59:34;16.65;;;10.98;;
30243;SDS011;64022;53.652;9.792;2022-10-17T10:04:39;14.90;;;11.68;;
30243;SDS011;64022;53.652;9.792;2022-10-17T10:07:36;17.85;;;12.57;;
30243;SDS011;64022;53.652;9.792;2022-10-17T10:10:04;16.92;;;12.05;;
30243;SDS011;64022;53.652;9.792;2022-10-17T10:12:33;15.55;;;11.88;;
30243;SDS011;64022;53.652;9.792;2022-10-17T10:15:02;15.50;;;11.90;;
30243;SDS011;64022;53.652;9.792;2022-10-17T10:21:01;16.35;;;12.10;;
30243;SDS011;64022;53.652;9.792;2022-10-17T10:23:34;17.73;;;12.07;;
30243;SDS011;64022;53.652;9.792;2022-10-17T10:26:11;17.17;;;12.65;;
30243;SDS011;64022;53.652;9.792;2022-10-17T10:28:47;16.00;;;12.43;;
30243;SDS011;64022;53.652;9.792;2022-10-17T10:31:38;16.70;;;12.13;;
30243;SDS011;64022;53.652;9.792;2022-10-17T10:39:21;17.15;;;12.00;;
30243;SDS011;64022;53.652;9.792;2022-10-17T10:41:55;18.10;;;13.05;;
30243;SDS011;64022;53.652;9.792;2022-10-17T10:44:23;14.60;;;11.53;;
30243;SDS011;64022;53.652;9.792;2022-10-17T10:47:04;15.68;;;11.55;;
30243;SDS011;64022;53.652;9.792;2022-10-17T10:49:31;16.65;;;12.07;;
30243;SDS011;64022;53.652;9.792;2022-10-17T10:51:57;17.97;;;12.07;;
30243;SDS011;64022;53.652;9.792;2022-10-17T10:54:31;15.95;;;11.82;;
30243;SDS011;64022;53.652;9.792;2022-10-17T10:57:02;15.48;;;11.93;;
30243;SDS011;64022;53.652;9.792;2022-10-17T10:59:35;16.02;;;11.70;;
30243;SDS011;64022;53.652;9.792;2022-10-17T11:08:23;15.15;;;11.40;;
30243;SDS011;64022;53.652;9.792;2022-10-17T11:11:16;16.27;;;11.82;;
30243;SDS011;64022;53.652;9.792;2022-10-17T11:14:02;14.27;;;11.13;;
30243;SDS011;64022;53.652;9.792;2022-10-17T11:16:36;17.17;;;11.38;;
30243;SDS011;64022;53.652;9.792;2022-10-17T11:19:19;16.75;;;11.07;;
30243;SDS011;64022;53.652;9.792;2022-10-17T11:24:41;14.10;;;10.88;;
30243;SDS011;64022;53.652;9.792;2022-10-17T11:27:14;15.35;;;11.80;;
30243;SDS011;64022;53.652;9.792;2022-10-17T11:29:40;13.13;;;10.53;;
30243;SDS011;64022;53.652;9.792;2022-10-17T11:32:10;16.20;;;11.65;;
30243;SDS011;64022;53.652;9.792;2022-10-17T11:34:40;16.85;;;12.02;;
30243;SDS011;64022;53.652;9.792;2022-10-17T11:37:14;14.90;;;11.40;;
30243;SDS011;64022;53.652;9.792;2022-10-17T11:39:43;16.30;;;11.90;;
30243;SDS011;64022;53.652;9.792;2022-10-17T11:42:38;14.23;;;10.90;;
30243;SDS011;64022;53.652;9.792;2022-10-17T11:45:15;13.70;;;10.93;;
30243;SDS011;64022;53.652;9.792;2022-10-17T11:47:43;15.40;;;11.18;;
30243;SDS011;64022;53.652;9.792;2022-10-17T11:50:17;15.30;;;10.88;;
30243;SDS011;64022;53.652;9.792;2022-10-17T11:52:50;16.65;;;10.90;;
30243;SDS011;64022;53.652;9.792;2022-10-17T11:55:33;14.65;;;10.65;;
30243;SDS011;64022;53.652;9.792;2022-10-17T12:12:02;14.68;;;10.75;;
30243;SDS011;64022;53.652;9.792;2022-10-17T12:14:35;13.23;;;10.40;;
30243;SDS011;64022;53.652;9.792;2022-10-17T12:17:04;13.48;;;10.00;;
30243;SDS011;64022;53.652;9.792;2022-10-17T12:19:46;14.70;;;10.80;;
30243;SDS011;64022;53.652;9.792;2022-10-17T12:24:55;15.73;;;11.25;;
30243;SDS011;64022;53.652;9.792;2022-10-17T12:27:33;15.00;;;10.57;;
30243;SDS011;64022;53.652;9.792;2022-10-17T12:30:05;14.65;;;10.25;;
30243;SDS011;64022;53.652;9.792;2022-10-17T12:32:53;14.45;;;10.93;;
30243;SDS011;64022;53.652;9.792;2022-10-17T12:35:25;16.33;;;10.82;;
30243;SDS011;64022;53.652;9.792;2022-10-17T12:45:49;14.43;;;10.73;;
30243;SDS011;64022;53.652;9.792;2022-10-17T12:51:07;11.57;;;9.27;;
30243;SDS011;64022;53.652;9.792;2022-10-17T12:56:46;11.68;;;9.23;;
30243;SDS011;64022;53.652;9.792;2022-10-17T12:59:23;14.13;;;10.23;;
30243;SDS011;64022;53.652;9.792;2022-10-17T13:01:53;13.20;;;10.30;;
30243;SDS011;64022;53.652;9.792;2022-10-17T13:04:22;13.32;;;9.38;;
30243;SDS011;64022;53.652;9.792;2022-10-17T13:06:53;14.23;;;10.20;;
30243;SDS011;64022;53.652;9.792;2022-10-17T13:09:25;13.77;;;10.15;;
30243;SDS011;64022;53.652;9.792;2022-10-17T13:11:53;14.32;;;9.88;;
30243;SDS011;64022;53.652;9.792;2022-10-17T13:14:21;13.80;;;10.02;;
30243;SDS011;64022;53.652;9.792;2022-10-17T13:17:01;13.35;;;9.80;;
30243;SDS011;64022;53.652;9.792;2022-10-17T13:19:39;12.18;;;8.93;;
30243;SDS011;64022;53.652;9.792;2022-10-17T13:22:10;12.43;;;9.05;;
30243;SDS011;64022;53.652;9.792;2022-10-17T13:24:41;13.18;;;9.85;;
30243;SDS011;64022;53.652;9.792;2022-10-17T13:29:53;13.20;;;10.05;;
30243;SDS011;64022;53.652;9.792;2022-10-17T13:32:20;17.05;;;10.82;;
30243;SDS011;64022;53.652;9.792;2022-10-17T13:35:03;12.07;;;9.27;;
30243;SDS011;64022;53.652;9.792;2022-10-17T13:37:34;14.05;;;9.48;;
30243;SDS011;64022;53.652;9.792;2022-10-17T13:40:01;13.32;;;10.15;;
30243;SDS011;64022;53.652;9.792;2022-10-17T13:42:35;12.95;;;9.57;;
30243;SDS011;64022;53.652;9.792;2022-10-17T13:45:03;13.45;;;9.77;;
30243;SDS011;64022;53.652;9.792;2022-10-17T13:47:35;13.70;;;10.40;;
30243;SDS011;64022;53.652;9.792;2022-10-17T13:50:03;13.82;;;9.80;;
30243;SDS011;64022;53.652;9.792;2022-10-17T13:52:29;15.20;;;10.93;;
30243;SDS011;64022;53.652;9.792;2022-10-17T13:55:05;14.70;;;10.97;;
30243;SDS011;64022;53.652;9.792;2022-10-17T13:57:32;13.27;;;10.25;;
30243;SDS011;64022;53.652;9.792;2022-10-17T13:59:59;13.20;;;10.10;;
30243;SDS011;64022;53.652;9.792;2022-10-17T14:02:27;13.40;;;9.95;;
30243;SDS011;64022;53.652;9.792;2022-10-17T14:04:58;14.65;;;10.93;;
30243;SDS011;64022;53.652;9.792;2022-10-17T14:07:45;14.15;;;10.40;;
30243;SDS011;64022;53.652;9.792;2022-10-17T14:12:58;15.10;;;11.30;;
30243;SDS011;64022;53.652;9.792;2022-10-17T14:15:26;13.57;;;10.40;;
30243;SDS011;64022;53.652;9.792;2022-10-17T14:17:54;14.38;;;10.68;;
30243;SDS011;64022;53.652;9.792;2022-10-17T14:20:22;16.58;;;11.80;;
30243;SDS011;64022;53.652;9.792;2022-10-17T14:22:48;18.30;;;11.25;;
30243;SDS011;64022;53.652;9.792;2022-10-17T14:25:30;16.70;;;11.83;;
30243;SDS011;64022;53.652;9.792;2022-10-17T14:30:39;22.75;;;12.63;;
30243;SDS011;64022;53.652;9.792;2022-10-17T14:33:11;23.42;;;12.60;;
30243;SDS011;64022;53.652;9.792;2022-10-17T14:35:48;16.50;;;11.90;;
30243;SDS011;64022;53.652;9.792;2022-10-17T14:38:15;19.50;;;11.82;;
30243;SDS011;64022;53.652;9.792;2022-10-17T14:40:47;18.83;;;12.57;;
30243;SDS011;64022;53.652;9.792;2022-10-17T14:43:19;18.00;;;11.32;;
30243;SDS011;64022;53.652;9.792;2022-10-17T14:45:47;17.40;;;12.57;;
30243;SDS011;64022;53.652;9.792;2022-10-17T14:48:14;23.30;;;13.20;;
30243;SDS011;64022;53.652;9.792;2022-10-17T14:50:41;19.73;;;12.98;;
30243;SDS011;64022;53.652;9.792;2022-10-17T14:54:01;19.88;;;12.82;;
30243;SDS011;64022;53.652;9.792;2022-10-17T14:56:48;23.95;;;13.48;;
30243;SDS011;64022;53.652;9.792;2022-10-17T14:59:15;19.00;;;12.57;;
30243;SDS011;64022;53.652;9.792;2022-10-17T15:01:46;22.80;;;13.15;;
30243;SDS011;64022;53.652;9.792;2022-10-17T15:04:14;25.15;;;13.57;;
30243;SDS011;64022;53.652;9.792;2022-10-17T15:06:40;18.87;;;12.83;;
30243;SDS011;64022;53.652;9.792;2022-10-17T15:09:06;18.40;;;12.47;;
30243;SDS011;64022;53.652;9.792;2022-10-17T15:11:31;20.50;;;13.60;;
30243;SDS011;64022;53.652;9.792;2022-10-17T15:13:57;22.90;;;13.17;;
30243;SDS011;64022;53.652;9.792;2022-10-17T15:16:23;22.37;;;13.63;;
30243;SDS011;64022;53.652;9.792;2022-10-17T15:18:50;20.38;;;13.13;;
30243;SDS011;64022;53.652;9.792;2022-10-17T15:21:18;19.45;;;13.32;;
30243;SDS011;64022;53.652;9.792;2022-10-17T15:23:46;18.10;;;13.27;;
30243;SDS011;64022;53.652;9.792;2022-10-17T15:26:12;22.10;;;14.87;;
30243;SDS011;64022;53.652;9.792;2022-10-17T15:28:46;19.67;;;13.32;;
30243;SDS011;64022;53.652;9.792;2022-10-17T15:31:14;20.48;;;14.20;;
30243;SDS011;64022;53.652;9.792;2022-10-17T15:33:41;17.63;;;12.38;;
30243;SDS011;64022;53.652;9.792;2022-10-17T15:38:53;20.92;;;13.52;;
30243;SDS011;64022;53.652;9.792;2022-10-17T15:41:21;19.38;;;13.95;;
30243;SDS011;64022;53.652;9.792;2022-10-17T15:43:48;19.73;;;12.90;;
30243;SDS011;64022;53.652;9.792;2022-10-17T15:46:15;18.10;;;13.20;;
30243;SDS011;64022;53.652;9.792;2022-10-17T15:48:45;20.35;;;13.30;;
30243;SDS011;64022;53.652;9.792;2022-10-17T15:51:10;21.10;;;14.23;;
30243;SDS011;64022;53.652;9.792;2022-10-17T15:53:36;19.93;;;13.10;;
30243;SDS011;64022;53.652;9.792;2022-10-17T15:56:02;21.07;;;13.70;;
30243;SDS011;64022;53.652;9.792;2022-10-17T15:58:31;24.42;;;15.35;;
30243;SDS011;64022;53.652;9.792;2022-10-17T16:01:02;22.67;;;15.82;;
30243;SDS011;64022;53.652;9.792;2022-10-17T16:03:29;28.08;;;16.58;;
30243;SDS011;64022;53.652;9.792;2022-10-17T16:05:54;24.23;;;17.13;;
30243;SDS011;64022;53.652;9.792;2022-10-17T16:08:20;25.60;;;17.60;;
30243;SDS011;64022;53.652;9.792;2022-10-17T16:10:46;26.23;;;17.03;;
30243;SDS011;64022;53.652;9.792;2022-10-17T16:13:16;27.97;;;17.60;;
30243;SDS011;64022;53.652;9.792;2022-10-17T16:15:47;23.90;;;16.50;;
30243;SDS011;64022;53.652;9.792;2022-10-17T16:18:12;22.77;;;16.23;;
30243;SDS011;64022;53.652;9.792;2022-10-17T16:20:38;24.80;;;17.17;;
30243;SDS011;64022;53.652;9.792;2022-10-17T16:23:04;25.03;;;17.63;;